Hlavní strana
METAR-TAF:

METAR-TAF

Letiště :

Vilhelmina, Švédsko

zeměpisná šířka: 64-34-44N, zeměpisná délka: 016-50-00E, výška: 347 m

Aktuální stav počasí

Zpráva byla vytvořena před 27 minutami, v 09:20 UTC
Bezvětří
Teplota -6°C
Vlhkost vzduchu 86%
Tlak 1015 hPa
Viditelnost 10 km a více

METAR: ESNV 170920Z AUTO 00000KT 9999 NCD M06/M08 Q1015

Čas: 10:47 (09:47 UTC)


TAF: chybějící

Stav a předpovědi počasí z více než 4 000 letišť (zprávy METAR a TAF).

Červené a žluté tečky na mapě představují dostupné meteorologické stanice.

Když kurzor umístíte na tečku, zobrazí se název stanice.

Pak kliknutím zobrazíte stav a předpověď počasí.

Chcete-li změnit mapu, kliknutím na zelené tlačítko se znaménkem +mapu přiblížíte, kliknutím na zelené tlačítko se znaménkem – mapu oddálíte a kliknutím na zelené šipky přejdete na sousední mapy.


METAR-TAF: